createdAt,value
2018-10-11T00:00:52.360Z,19.13
2018-10-11T00:03:24.641Z,19.00
2018-10-11T00:05:56.933Z,16.97
2018-10-11T00:08:29.190Z,19.07
2018-10-11T00:11:01.480Z,19.97
2018-10-11T00:13:33.753Z,22.03
2018-10-11T00:16:06.013Z,19.77
2018-10-11T00:18:38.270Z,22.60
2018-10-11T00:21:10.585Z,19.90
2018-10-11T00:23:42.917Z,19.03
2018-10-11T00:26:15.261Z,18.93
2018-10-11T00:28:47.521Z,21.53
2018-10-11T00:31:19.841Z,20.53
2018-10-11T00:33:52.111Z,23.17
2018-10-11T00:36:24.378Z,22.33
2018-10-11T00:38:56.706Z,21.57
2018-10-11T00:41:28.998Z,21.73
2018-10-11T00:44:01.309Z,27.63
2018-10-11T00:46:33.605Z,19.63
2018-10-11T00:49:05.913Z,22.73
2018-10-11T00:51:38.327Z,19.73
2018-10-11T00:54:10.581Z,19.57
2018-10-11T00:56:42.936Z,24.80
2018-10-11T00:59:15.252Z,21.13
2018-10-11T01:01:47.641Z,21.40
2018-10-11T01:04:19.906Z,24.27
2018-10-11T01:06:52.253Z,20.40
2018-10-11T01:09:24.735Z,22.10
2018-10-11T01:11:56.981Z,24.07
2018-10-11T01:14:29.428Z,18.67
2018-10-11T01:17:01.773Z,22.83
2018-10-11T01:19:34.133Z,19.47
2018-10-11T01:22:06.690Z,23.20
2018-10-11T01:24:39.307Z,18.67
2018-10-11T01:27:11.564Z,23.87
2018-10-11T01:29:43.858Z,19.00
2018-10-11T01:32:16.167Z,22.47
2018-10-11T01:34:48.460Z,19.00
2018-10-11T01:37:20.798Z,22.37
2018-10-11T01:39:53.178Z,21.00
2018-10-11T01:42:25.637Z,19.67
2018-10-11T01:44:57.921Z,22.03
2018-10-11T01:47:30.230Z,17.93
2018-10-11T01:50:02.537Z,20.03
2018-10-11T01:52:34.812Z,19.60
2018-10-11T01:55:07.110Z,19.83
2018-10-11T01:57:39.474Z,18.90
2018-10-11T02:00:11.834Z,20.63
2018-10-11T02:02:44.261Z,20.60
2018-10-11T02:05:16.647Z,18.90
2018-10-11T02:07:48.928Z,21.53
2018-10-11T02:10:21.223Z,18.50
2018-10-11T02:12:53.597Z,22.13
2018-10-11T02:15:26.747Z,16.77
2018-10-11T02:17:59.048Z,17.90
2018-10-11T02:20:31.401Z,17.43
2018-10-11T02:23:03.745Z,22.40
2018-10-11T02:25:36.106Z,20.60
2018-10-11T02:28:09.261Z,23.23
2018-10-11T02:30:41.514Z,20.97
2018-10-11T02:33:13.778Z,20.07
2018-10-11T02:35:46.029Z,21.27
2018-10-11T02:38:18.312Z,19.50
2018-10-11T02:40:50.593Z,19.13
2018-10-11T02:43:22.975Z,21.90
2018-10-11T02:45:55.541Z,20.43
2018-10-11T02:48:27.949Z,22.57
2018-10-11T02:51:00.283Z,23.03
2018-10-11T02:53:32.585Z,25.80
2018-10-11T02:56:05.833Z,24.63
2018-10-11T02:58:49.525Z,26.00
2018-10-11T03:01:22.011Z,23.90
2018-10-11T03:04:05.668Z,22.80
2018-10-11T03:06:38.789Z,23.47
2018-10-11T03:09:11.162Z,27.03
2018-10-11T03:11:43.485Z,19.63
2018-10-11T03:14:15.773Z,23.50
2018-10-11T03:16:48.069Z,23.07
2018-10-11T03:19:20.313Z,24.30
2018-10-11T03:21:52.615Z,30.40
2018-10-11T03:24:24.848Z,24.97
2018-10-11T03:26:58.861Z,23.20
2018-10-11T03:29:31.324Z,23.57
2018-10-11T03:32:03.602Z,23.27
2018-10-11T03:34:35.837Z,18.90
2018-10-11T03:37:08.235Z,24.80
2018-10-11T03:39:40.521Z,23.07
2018-10-11T03:42:12.795Z,26.97
2018-10-11T03:44:45.181Z,22.07
2018-10-11T03:47:17.522Z,25.47
2018-10-11T03:49:49.764Z,23.73
2018-10-11T03:52:22.033Z,18.53
2018-10-11T03:54:54.366Z,19.90
2018-10-11T03:57:26.660Z,20.80
2018-10-11T03:59:58.959Z,18.43
2018-10-11T04:02:31.278Z,18.00
2018-10-11T04:05:03.670Z,25.30
2018-10-11T04:07:36.256Z,26.60
2018-10-11T04:10:08.472Z,26.47
2018-10-11T04:12:40.781Z,21.07
2018-10-11T04:15:13.078Z,19.83
2018-10-11T04:17:45.337Z,20.87
2018-10-11T04:20:17.598Z,22.23
2018-10-11T04:22:49.847Z,21.33
2018-10-11T04:25:22.109Z,23.50
2018-10-11T04:27:54.485Z,24.83
2018-10-11T04:30:26.840Z,19.13
2018-10-11T04:32:59.105Z,25.20
2018-10-11T04:35:31.401Z,24.23
2018-10-11T04:38:03.841Z,22.67
2018-10-11T04:40:36.149Z,23.67
2018-10-11T04:43:08.650Z,21.57
2018-10-11T04:45:41.859Z,23.67
2018-10-11T04:48:14.185Z,29.23
2018-10-11T04:50:46.541Z,27.37
2018-10-11T04:53:18.888Z,30.57
2018-10-11T04:55:51.182Z,25.13
2018-10-11T04:58:23.462Z,26.70
2018-10-11T05:00:55.750Z,23.90
2018-10-11T05:03:28.017Z,25.37
2018-10-11T05:06:00.268Z,26.67
2018-10-11T05:08:32.551Z,27.20
2018-10-11T05:11:04.897Z,28.40
2018-10-11T05:13:42.693Z,29.57
2018-10-11T05:16:15.689Z,26.50
2018-10-11T05:18:54.925Z,28.17
2018-10-11T05:21:27.219Z,27.07
2018-10-11T05:23:59.572Z,26.47
2018-10-11T05:26:31.870Z,31.47
2018-10-11T05:29:04.161Z,26.43
2018-10-11T05:31:36.557Z,23.37
2018-10-11T05:34:08.871Z,23.93
2018-10-11T05:36:41.153Z,28.83
2018-10-11T05:39:13.437Z,29.47
2018-10-11T05:41:45.921Z,24.87
2018-10-11T05:44:18.252Z,27.90
2018-10-11T05:46:50.591Z,22.23
2018-10-11T05:49:22.928Z,28.27
2018-10-11T05:51:55.341Z,27.40
2018-10-11T05:54:27.747Z,29.73
2018-10-11T05:57:00.114Z,29.93
2018-10-11T05:59:32.546Z,28.53
2018-10-11T06:02:04.915Z,27.73
2018-10-11T06:04:37.214Z,28.67
2018-10-11T06:07:09.546Z,25.03
2018-10-11T06:09:41.890Z,26.13
2018-10-11T06:12:14.370Z,28.40
2018-10-11T06:14:47.518Z,25.00
2018-10-11T06:17:19.895Z,24.03
2018-10-11T06:19:52.164Z,21.13
2018-10-11T06:22:24.554Z,27.50
2018-10-11T06:24:56.894Z,28.60
2018-10-11T06:27:29.514Z,26.20
2018-10-11T06:30:02.025Z,25.47
2018-10-11T06:32:34.398Z,23.60
2018-10-11T06:35:06.989Z,22.40
2018-10-11T06:37:39.364Z,21.60
2018-10-11T06:40:11.762Z,20.53
2018-10-11T06:42:44.498Z,21.93
2018-10-11T06:45:17.093Z,21.57
2018-10-11T06:47:51.674Z,23.03
2018-10-11T06:50:24.112Z,22.17
2018-10-11T06:52:56.638Z,24.07
2018-10-11T06:55:29.067Z,21.63
2018-10-11T06:58:01.316Z,21.57
2018-10-11T07:00:33.624Z,21.37
2018-10-11T07:03:06.131Z,22.53
2018-10-11T07:05:38.556Z,20.73
2018-10-11T07:08:10.829Z,20.03
2018-10-11T07:10:43.121Z,22.13
2018-10-11T07:13:15.402Z,21.00
2018-10-11T07:15:47.872Z,19.52
2018-10-11T07:18:20.286Z,23.30
2018-10-11T07:20:52.546Z,20.65
2018-10-11T07:23:24.869Z,22.02
2018-10-11T07:25:57.230Z,18.30
2018-10-11T07:28:33.358Z,21.55
2018-10-11T07:31:05.631Z,20.43
2018-10-11T07:33:37.955Z,17.80
2018-10-11T07:36:10.218Z,20.25
2018-10-11T07:38:42.523Z,18.37
2018-10-11T07:41:14.786Z,20.82
2018-10-11T07:43:47.118Z,21.33
2018-10-11T07:46:19.393Z,21.62
2018-10-11T07:48:51.673Z,20.85
2018-10-11T07:51:23.918Z,18.02
2018-10-11T07:54:00.088Z,18.85
2018-10-11T07:56:33.021Z,17.05
2018-10-11T07:59:05.736Z,17.57
2018-10-11T08:01:38.091Z,21.82
2018-10-11T08:04:10.305Z,21.05
2018-10-11T08:06:42.571Z,21.42
2018-10-11T08:09:14.867Z,20.23
2018-10-11T08:11:47.387Z,21.97
2018-10-11T08:14:19.517Z,20.05
2018-10-11T08:16:51.918Z,20.95
2018-10-11T08:19:24.306Z,18.07
2018-10-11T08:21:56.477Z,19.10
2018-10-11T08:24:28.842Z,17.20
2018-10-11T08:27:01.127Z,17.90
2018-10-11T08:29:33.433Z,16.40
2018-10-11T08:32:05.755Z,17.00
2018-10-11T08:34:38.027Z,17.40
2018-10-11T08:37:10.357Z,16.52
2018-10-11T08:39:42.625Z,16.62
2018-10-11T08:42:14.956Z,17.02
2018-10-11T08:44:47.226Z,15.23
2018-10-11T08:47:19.526Z,15.25
2018-10-11T08:49:51.780Z,14.68
2018-10-11T08:52:24.089Z,13.95
2018-10-11T08:54:56.417Z,13.30
2018-10-11T08:57:28.745Z,14.30
2018-10-11T09:00:01.038Z,14.00
2018-10-11T09:02:33.370Z,16.25
2018-10-11T09:05:06.151Z,14.63
2018-10-11T09:07:38.439Z,13.98
2018-10-11T09:10:10.751Z,13.28
2018-10-11T09:12:43.052Z,12.50
2018-10-11T09:15:15.373Z,13.35
2018-10-11T09:17:47.671Z,14.65
2018-10-11T09:20:19.997Z,13.20
2018-10-11T09:22:52.312Z,12.60
2018-10-11T09:25:24.710Z,12.53
2018-10-11T09:27:57.034Z,12.68
2018-10-11T09:30:29.435Z,12.78
2018-10-11T09:33:01.641Z,12.88
2018-10-11T09:35:33.986Z,10.80
2018-10-11T09:38:06.285Z,11.18
2018-10-11T09:40:38.626Z,12.58
2018-10-11T09:43:10.901Z,11.95
2018-10-11T09:45:43.225Z,9.63
2018-10-11T09:48:15.541Z,10.48
2018-10-11T09:50:47.841Z,8.70
2018-10-11T09:53:20.108Z,9.25
2018-10-11T09:55:52.405Z,10.05
2018-10-11T09:58:24.687Z,10.50
2018-10-11T10:01:02.595Z,9.85
2018-10-11T10:03:34.949Z,10.15
2018-10-11T10:06:07.269Z,9.65
2018-10-11T10:08:39.597Z,9.95
2018-10-11T10:11:11.911Z,10.58
2018-10-11T10:13:44.189Z,10.93
2018-10-11T10:16:16.545Z,11.43
2018-10-11T10:18:48.907Z,11.33
2018-10-11T10:21:21.364Z,10.40
2018-10-11T10:23:53.518Z,10.13
2018-10-11T10:26:25.836Z,11.12
2018-10-11T10:28:58.134Z,9.80
2018-10-11T10:31:30.649Z,9.60
2018-10-11T10:34:03.097Z,9.63
2018-10-11T10:36:35.282Z,9.80
2018-10-11T10:39:08.031Z,8.73
2018-10-11T10:41:40.322Z,11.18
2018-10-11T10:44:12.601Z,10.05
2018-10-11T10:46:44.913Z,10.95
2018-10-11T10:49:17.326Z,10.65
2018-10-11T10:51:49.625Z,10.98
2018-10-11T10:54:30.329Z,11.12
2018-10-11T10:57:03.207Z,10.03
2018-10-11T10:59:36.172Z,11.43
2018-10-11T11:02:08.494Z,12.05
2018-10-11T11:04:40.807Z,10.10
2018-10-11T11:07:13.194Z,10.68
2018-10-11T11:09:45.473Z,11.25
2018-10-11T11:12:17.783Z,10.50
2018-10-11T11:14:50.101Z,10.72
2018-10-11T11:17:22.428Z,11.20
2018-10-11T11:19:54.706Z,10.93
2018-10-11T11:22:26.976Z,11.50
2018-10-11T11:24:59.278Z,10.10
2018-10-11T11:27:31.585Z,10.58
2018-10-11T11:30:04.002Z,11.55
2018-10-11T11:32:36.401Z,10.60
2018-10-11T11:35:08.713Z,10.75
2018-10-11T11:37:41.008Z,9.10
2018-10-11T11:40:13.372Z,10.20
2018-10-11T11:42:45.642Z,9.95
2018-10-11T11:45:17.925Z,11.00
2018-10-11T11:47:50.247Z,9.75
2018-10-11T11:50:22.596Z,9.40
2018-10-11T11:52:54.828Z,9.93
2018-10-11T11:55:27.115Z,8.78
2018-10-11T11:57:59.406Z,8.20
2018-10-11T12:00:31.713Z,8.18
2018-10-11T12:03:03.985Z,7.92
2018-10-11T12:05:36.330Z,9.58
2018-10-11T12:08:08.678Z,9.25
2018-10-11T12:10:40.972Z,10.10
2018-10-11T12:13:13.237Z,10.35
2018-10-11T12:15:45.509Z,10.00
2018-10-11T12:18:18.050Z,10.25
2018-10-11T12:20:50.353Z,10.35
2018-10-11T12:23:22.625Z,9.65
2018-10-11T12:25:54.928Z,6.90
2018-10-11T12:28:27.327Z,9.45
2018-10-11T12:30:59.685Z,9.88
2018-10-11T12:33:32.000Z,9.15
2018-10-11T12:36:04.660Z,8.95
2018-10-11T12:38:37.121Z,8.95
2018-10-11T12:41:09.384Z,8.45
2018-10-11T12:43:41.645Z,7.90
2018-10-11T12:46:13.998Z,9.50
2018-10-11T12:48:46.306Z,8.78
2018-10-11T12:51:18.637Z,8.90
2018-10-11T12:53:50.953Z,7.45
2018-10-11T12:56:23.270Z,6.78
2018-10-11T12:58:55.546Z,6.55
2018-10-11T13:01:27.850Z,7.15
2018-10-11T13:04:00.133Z,6.85
2018-10-11T13:06:32.411Z,8.73
2018-10-11T13:09:11.513Z,6.60
2018-10-11T13:11:43.793Z,7.22
2018-10-11T13:14:16.248Z,6.92
2018-10-11T13:16:48.562Z,7.37
2018-10-11T13:19:20.910Z,6.53
2018-10-11T13:21:53.229Z,7.87
2018-10-11T13:24:25.616Z,7.00
2018-10-11T13:26:57.955Z,7.35
2018-10-11T13:29:30.261Z,9.25
2018-10-11T13:32:02.559Z,7.30
2018-10-11T13:34:34.885Z,8.13
2018-10-11T13:37:07.558Z,7.33
2018-10-11T13:39:44.305Z,7.25
2018-10-11T13:42:12.241Z,7.50
2018-10-11T13:44:44.545Z,7.00
2018-10-11T13:47:16.953Z,7.12
2018-10-11T13:49:49.247Z,6.25
2018-10-11T13:52:22.513Z,6.22
2018-10-11T13:54:54.117Z,6.40
2018-10-11T13:57:29.337Z,5.85
2018-10-11T13:59:58.807Z,5.33
2018-10-11T14:02:31.165Z,5.95
2018-10-11T14:05:03.558Z,6.25
2018-10-11T14:07:36.329Z,6.37
2018-10-11T14:10:08.727Z,7.20
2018-10-11T14:12:41.224Z,7.58
2018-10-11T14:15:13.723Z,6.87
2018-10-11T14:17:46.098Z,7.05
2018-10-11T14:20:18.341Z,6.78
2018-10-11T14:22:50.653Z,6.85
2018-10-11T14:25:22.999Z,7.45
2018-10-11T14:27:55.390Z,7.03
2018-10-11T14:30:27.702Z,6.10
2018-10-11T14:33:00.157Z,6.62
2018-10-11T14:35:32.516Z,7.80
2018-10-11T14:38:04.881Z,6.60
2018-10-11T14:40:37.194Z,6.92
2018-10-11T14:43:09.506Z,7.30
2018-10-11T14:45:41.878Z,7.03
2018-10-11T14:48:14.219Z,6.83
2018-10-11T14:50:46.600Z,7.42
2018-10-11T14:53:18.899Z,6.80
2018-10-11T14:55:51.459Z,8.03
2018-10-11T14:58:23.798Z,8.18
2018-10-11T15:00:56.085Z,7.08
2018-10-11T15:03:28.389Z,6.42
2018-10-11T15:06:00.749Z,6.80
2018-10-11T15:08:33.083Z,6.25
2018-10-11T15:11:05.868Z,6.17
2018-10-11T15:13:38.092Z,6.45
2018-10-11T15:16:10.414Z,6.92
2018-10-11T15:18:42.766Z,7.15
2018-10-11T15:21:15.096Z,7.17
2018-10-11T15:23:47.407Z,6.53
2018-10-11T15:26:19.756Z,7.22
2018-10-11T15:28:52.095Z,7.47
2018-10-11T15:31:24.561Z,7.42
2018-10-11T15:33:56.915Z,6.65
2018-10-11T15:36:29.250Z,7.97
2018-10-11T15:39:01.583Z,6.30
2018-10-11T15:41:33.943Z,6.62
2018-10-11T15:44:06.487Z,7.10
2018-10-11T15:46:39.033Z,7.10
2018-10-11T15:49:11.378Z,7.35
2018-10-11T15:51:43.754Z,7.70
2018-10-11T15:54:16.049Z,7.03
2018-10-11T15:56:48.413Z,7.33
2018-10-11T15:59:20.724Z,7.55
2018-10-11T16:01:53.070Z,6.95
2018-10-11T16:04:25.493Z,7.78
2018-10-11T16:06:57.914Z,7.85
2018-10-11T16:09:30.376Z,6.97
2018-10-11T16:12:02.739Z,6.47
2018-10-11T16:14:34.987Z,6.65
2018-10-11T16:17:07.406Z,6.85
2018-10-11T16:19:39.757Z,7.40
2018-10-11T16:22:12.127Z,8.10
2018-10-11T16:24:44.550Z,8.73
2018-10-11T16:27:16.895Z,7.30
2018-10-11T16:29:49.225Z,6.72
2018-10-11T16:32:21.606Z,7.30
2018-10-11T16:34:53.946Z,8.35
2018-10-11T16:37:26.526Z,9.73
2018-10-11T16:39:58.998Z,8.10
2018-10-11T16:42:31.673Z,8.00
2018-10-11T16:45:04.221Z,7.55
2018-10-11T16:47:36.800Z,9.80
2018-10-11T16:50:09.255Z,7.83
2018-10-11T16:52:41.558Z,8.98
2018-10-11T16:55:13.974Z,8.63
2018-10-11T16:57:46.384Z,8.80
2018-10-11T17:00:18.779Z,8.38
2018-10-11T17:02:51.376Z,10.60
2018-10-11T17:05:23.881Z,10.53
2018-10-11T17:07:56.539Z,8.38
2018-10-11T17:10:28.839Z,8.48
2018-10-11T17:13:01.161Z,8.73
2018-10-11T17:15:33.667Z,9.70
2018-10-11T17:18:06.131Z,8.28
2018-10-11T17:20:38.486Z,8.98
2018-10-11T17:23:10.815Z,9.93
2018-10-11T17:25:43.119Z,8.70
2018-10-11T17:28:15.443Z,8.25
2018-10-11T17:30:47.853Z,7.47
2018-10-11T17:33:20.230Z,8.23
2018-10-11T17:35:52.573Z,7.78
2018-10-11T17:38:24.934Z,9.53
2018-10-11T17:40:57.461Z,8.48
2018-10-11T17:43:29.937Z,9.73
2018-10-11T17:46:02.296Z,7.90
2018-10-11T17:48:34.670Z,9.35
2018-10-11T17:51:07.136Z,9.35
2018-10-11T17:53:39.486Z,8.73
2018-10-11T17:56:11.874Z,9.33
2018-10-11T17:58:44.154Z,9.13
2018-10-11T18:01:16.546Z,8.75
2018-10-11T18:03:48.889Z,9.25
2018-10-11T18:06:21.158Z,11.28
2018-10-11T18:08:53.554Z,9.65
2018-10-11T18:11:25.880Z,9.18
2018-10-11T18:13:58.296Z,8.15
2018-10-11T18:16:30.671Z,10.60
2018-10-11T18:19:03.089Z,10.13
2018-10-11T18:21:35.520Z,16.12
2018-10-11T18:24:07.913Z,15.28
2018-10-11T18:26:40.389Z,13.38
2018-10-11T18:29:12.926Z,10.35
2018-10-11T18:31:45.280Z,12.43
2018-10-11T18:34:17.666Z,12.07
2018-10-11T18:36:50.025Z,10.65
2018-10-11T18:39:22.598Z,10.18
2018-10-11T18:41:54.937Z,10.32
2018-10-11T18:44:27.360Z,10.30
2018-10-11T18:46:59.745Z,8.55
2018-10-11T18:49:32.120Z,8.48
2018-10-11T18:52:04.730Z,9.15
2018-10-11T18:54:37.228Z,9.73
2018-10-11T18:57:09.575Z,10.75
2018-10-11T18:59:42.036Z,12.80
2018-10-11T19:02:14.467Z,10.55
2018-10-11T19:04:46.921Z,10.85
2018-10-11T19:07:19.492Z,10.18
2018-10-11T19:09:51.875Z,8.73
2018-10-11T19:12:24.252Z,10.90
2018-10-11T19:14:56.644Z,8.88
2018-10-11T19:17:29.014Z,10.32
2018-10-11T19:20:01.397Z,10.78
2018-10-11T19:22:33.727Z,9.78
2018-10-11T19:25:06.095Z,10.60
2018-10-11T19:27:38.585Z,12.75
2018-10-11T19:30:10.987Z,11.12
2018-10-11T19:32:43.478Z,11.75
2018-10-11T19:35:15.857Z,12.18
2018-10-11T19:37:48.291Z,10.25
2018-10-11T19:40:20.632Z,12.05
2018-10-11T19:42:53.036Z,9.90
2018-10-11T19:45:25.402Z,11.38
2018-10-11T19:47:58.027Z,10.50
2018-10-11T19:50:30.365Z,12.33
2018-10-11T19:53:02.852Z,10.43
2018-10-11T19:55:35.253Z,12.80
2018-10-11T19:58:07.730Z,10.88
2018-10-11T20:00:40.346Z,11.10
2018-10-11T20:03:12.727Z,10.38
2018-10-11T20:05:45.210Z,12.05
2018-10-11T20:08:17.659Z,10.93
2018-10-11T20:10:50.081Z,12.05
2018-10-11T20:13:22.408Z,11.40
2018-10-11T20:15:54.775Z,10.28
2018-10-11T20:18:27.098Z,10.55
2018-10-11T20:20:59.499Z,10.18
2018-10-11T20:23:31.858Z,11.33
2018-10-11T20:26:04.372Z,12.33
2018-10-11T20:28:36.701Z,11.90
2018-10-11T20:31:09.098Z,10.98
2018-10-11T20:33:41.453Z,11.53
2018-10-11T20:36:13.906Z,11.57
2018-10-11T20:38:46.599Z,11.35
2018-10-11T20:41:19.130Z,10.93
2018-10-11T20:43:51.784Z,10.60
2018-10-11T20:46:24.212Z,11.60
2018-10-11T20:48:56.497Z,9.93
2018-10-11T20:51:29.110Z,10.15
2018-10-11T20:54:01.430Z,10.82
2018-10-11T20:56:33.773Z,10.15
2018-10-11T20:59:06.402Z,12.05
2018-10-11T21:01:38.745Z,11.73
2018-10-11T21:04:11.141Z,9.25
2018-10-11T21:06:43.443Z,10.38
2018-10-11T21:09:15.782Z,10.90
2018-10-11T21:11:48.231Z,11.35
2018-10-11T21:14:20.562Z,11.03
2018-10-11T21:16:52.956Z,11.20
2018-10-11T21:19:25.398Z,11.73
2018-10-11T21:21:57.725Z,10.98
2018-10-11T21:24:30.087Z,10.82
2018-10-11T21:27:02.493Z,10.58
2018-10-11T21:29:34.798Z,11.00
2018-10-11T21:32:07.326Z,10.08
2018-10-11T21:34:39.760Z,10.55
2018-10-11T21:37:12.164Z,10.75
2018-10-11T21:39:44.530Z,11.30
2018-10-11T21:42:16.877Z,10.35
2018-10-11T21:44:49.183Z,11.12
2018-10-11T21:47:21.524Z,11.05
2018-10-11T21:49:53.866Z,10.43
2018-10-11T21:52:26.199Z,11.12
2018-10-11T21:54:58.529Z,9.80
2018-10-11T21:57:30.817Z,11.08
2018-10-11T22:00:03.287Z,11.35
2018-10-11T22:02:35.581Z,9.38
2018-10-11T22:05:07.973Z,11.28
2018-10-11T22:07:40.300Z,11.40
2018-10-11T22:10:12.658Z,10.40
2018-10-11T22:12:44.933Z,10.20
2018-10-11T22:15:17.376Z,11.93
2018-10-11T22:17:49.692Z,10.43
2018-10-11T22:20:22.018Z,11.30
2018-10-11T22:22:54.276Z,10.53
2018-10-11T22:25:28.620Z,10.68
2018-10-11T22:28:00.962Z,10.90
2018-10-11T22:30:33.251Z,11.10
2018-10-11T22:33:05.539Z,11.03
2018-10-11T22:35:37.923Z,10.90
2018-10-11T22:38:10.235Z,10.53
2018-10-11T22:40:42.909Z,10.72
2018-10-11T22:43:15.198Z,10.68
2018-10-11T22:45:47.606Z,10.25
2018-10-11T22:48:20.022Z,9.68
2018-10-11T22:50:52.328Z,10.45
2018-10-11T22:53:24.708Z,10.32
2018-10-11T22:55:57.006Z,11.97
2018-10-11T22:58:29.308Z,10.48
2018-10-11T23:01:01.629Z,12.20
2018-10-11T23:03:33.953Z,11.25
2018-10-11T23:06:06.281Z,10.30
2018-10-11T23:08:38.897Z,12.23
2018-10-11T23:11:11.274Z,10.95
2018-10-11T23:13:43.668Z,11.75
2018-10-11T23:16:16.057Z,10.85
2018-10-11T23:18:48.353Z,11.75
2018-10-11T23:21:20.640Z,10.75
2018-10-11T23:23:52.969Z,11.28
2018-10-11T23:26:25.236Z,10.32
2018-10-11T23:28:57.565Z,9.08
2018-10-11T23:31:29.834Z,11.20
2018-10-11T23:34:02.121Z,10.68
2018-10-11T23:36:34.377Z,10.63
2018-10-11T23:39:08.404Z,10.28
2018-10-11T23:41:41.090Z,9.73
2018-10-11T23:44:13.429Z,11.18
2018-10-11T23:46:45.821Z,10.30
2018-10-11T23:49:18.086Z,12.00
2018-10-11T23:51:50.334Z,11.45
2018-10-11T23:54:22.663Z,10.90
2018-10-11T23:56:55.038Z,10.20
2018-10-11T23:59:27.349Z,10.90
